sensor_id;sensor_type;location;lat;lon;timestamp;pressure;altitude;pressure_sealevel;temperature;humidity
53270;BME280;39159;45.634;9.420;2023-07-31T00:01:32;98572.19;;;22.86;100.00
53270;BME280;39159;45.634;9.420;2023-07-31T00:03:58;98573.78;;;22.94;100.00
53270;BME280;39159;45.634;9.420;2023-07-31T00:06:23;98586.91;;;23.01;100.00
53270;BME280;39159;45.634;9.420;2023-07-31T00:08:48;98584.91;;;23.09;100.00
53270;BME280;39159;45.634;9.420;2023-07-31T00:11:14;98595.22;;;23.12;100.00
53270;BME280;39159;45.634;9.420;2023-07-31T00:13:39;98593.63;;;23.18;100.00
53270;BME280;39159;45.634;9.420;2023-07-31T00:16:05;98594.81;;;23.28;100.00
53270;BME280;39159;45.634;9.420;2023-07-31T00:18:31;98596.78;;;23.31;100.00
53270;BME280;39159;45.634;9.420;2023-07-31T00:20:56;98596.78;;;23.34;100.00
53270;BME280;39159;45.634;9.420;2023-07-31T00:23:22;98603.91;;;23.35;100.00
53270;BME280;39159;45.634;9.420;2023-07-31T00:25:47;98604.28;;;23.45;100.00
53270;BME280;39159;45.634;9.420;2023-07-31T00:28:13;98605.06;;;23.49;100.00
53270;BME280;39159;45.634;9.420;2023-07-31T00:30:38;98599.06;;;23.54;100.00
53270;BME280;39159;45.634;9.420;2023-07-31T00:33:04;98601.84;;;23.54;100.00
53270;BME280;39159;45.634;9.420;2023-07-31T00:35:29;98606.25;;;23.55;100.00
53270;BME280;39159;45.634;9.420;2023-07-31T00:37:56;98607.81;;;23.59;100.00
53270;BME280;39159;45.634;9.420;2023-07-31T00:40:21;98612.59;;;23.59;100.00
53270;BME280;39159;45.634;9.420;2023-07-31T00:42:47;98609.81;;;23.59;100.00
53270;BME280;39159;45.634;9.420;2023-07-31T00:45:12;98611.81;;;23.55;100.00
53270;BME280;39159;45.634;9.420;2023-07-31T00:47:37;98608.63;;;23.49;100.00
53270;BME280;39159;45.634;9.420;2023-07-31T00:50:03;98617.00;;;23.49;100.00
53270;BME280;39159;45.634;9.420;2023-07-31T00:52:29;98607.84;;;23.49;100.00
53270;BME280;39159;45.634;9.420;2023-07-31T00:54:55;98611.06;;;23.44;100.00
53270;BME280;39159;45.634;9.420;2023-07-31T00:57:20;98605.50;;;23.40;100.00
53270;BME280;39159;45.634;9.420;2023-07-31T00:59:46;98603.91;;;23.39;100.00
53270;BME280;39159;45.634;9.420;2023-07-31T01:02:12;98603.13;;;23.35;100.00
53270;BME280;39159;45.634;9.420;2023-07-31T01:04:37;98605.09;;;23.42;100.00
53270;BME280;39159;45.634;9.420;2023-07-31T01:08:00;98613.47;;;23.34;100.00
53270;BME280;39159;45.634;9.420;2023-07-31T01:10:32;98611.91;;;23.23;100.00
53270;BME280;39159;45.634;9.420;2023-07-31T01:13:00;98608.31;;;23.22;100.00
53270;BME280;39159;45.634;9.420;2023-07-31T01:15:27;98605.16;;;23.13;100.00
53270;BME280;39159;45.634;9.420;2023-07-31T01:17:53;98604.00;;;23.10;100.00
53270;BME280;39159;45.634;9.420;2023-07-31T01:20:22;98596.03;;;23.12;100.00
53270;BME280;39159;45.634;9.420;2023-07-31T01:22:54;98593.63;;;23.11;100.00
53270;BME280;39159;45.634;9.420;2023-07-31T01:31:16;98586.88;;;23.05;100.00
53270;BME280;39159;45.634;9.420;2023-07-31T01:33:42;98594.84;;;23.06;100.00
53270;BME280;39159;45.634;9.420;2023-07-31T01:36:08;98590.09;;;23.00;100.00
53270;BME280;39159;45.634;9.420;2023-07-31T01:38:33;98593.63;;;23.07;100.00
53270;BME280;39159;45.634;9.420;2023-07-31T01:40:59;98595.66;;;23.00;100.00
53270;BME280;39159;45.634;9.420;2023-07-31T01:43:24;98592.44;;;22.97;100.00
53270;BME280;39159;45.634;9.420;2023-07-31T01:45:50;98590.06;;;22.96;100.00
53270;BME280;39159;45.634;9.420;2023-07-31T01:48:15;98592.44;;;22.94;100.00
53270;BME280;39159;45.634;9.420;2023-07-31T01:50:40;98586.50;;;22.99;100.00
53270;BME280;39159;45.634;9.420;2023-07-31T01:53:06;98591.28;;;23.02;100.00
53270;BME280;39159;45.634;9.420;2023-07-31T01:55:31;98590.09;;;23.00;100.00
53270;BME280;39159;45.634;9.420;2023-07-31T01:57:57;98586.50;;;22.99;100.00
53270;BME280;39159;45.634;9.420;2023-07-31T02:00:22;98586.50;;;22.99;100.00
53270;BME280;39159;45.634;9.420;2023-07-31T02:02:47;98586.88;;;22.97;100.00
53270;BME280;39159;45.634;9.420;2023-07-31T02:05:13;98584.91;;;22.91;100.00
53270;BME280;39159;45.634;9.420;2023-07-31T02:07:38;98586.50;;;22.88;100.00
53270;BME280;39159;45.634;9.420;2023-07-31T02:10:04;98580.94;;;22.88;100.00
53270;BME280;39159;45.634;9.420;2023-07-31T02:12:30;98574.56;;;22.81;100.00
53270;BME280;39159;45.634;9.420;2023-07-31T02:14:57;98574.56;;;22.91;100.00
53270;BME280;39159;45.634;9.420;2023-07-31T02:17:22;98584.09;;;22.87;100.00
53270;BME280;39159;45.634;9.420;2023-07-31T02:19:48;98581.72;;;22.85;100.00
53270;BME280;39159;45.634;9.420;2023-07-31T02:22:13;98580.53;;;22.86;100.00
53270;BME280;39159;45.634;9.420;2023-07-31T02:24:39;98584.13;;;22.90;100.00
53270;BME280;39159;45.634;9.420;2023-07-31T02:27:05;98588.09;;;22.86;100.00
53270;BME280;39159;45.634;9.420;2023-07-31T02:29:30;98587.69;;;22.87;100.00
53270;BME280;39159;45.634;9.420;2023-07-31T02:31:56;98584.50;;;22.89;100.00
53270;BME280;39159;45.634;9.420;2023-07-31T02:34:21;98574.94;;;22.93;100.00
53270;BME280;39159;45.634;9.420;2023-07-31T02:36:46;98572.16;;;22.93;100.00
53270;BME280;39159;45.634;9.420;2023-07-31T02:39:12;98576.56;;;22.91;100.00
53270;BME280;39159;45.634;9.420;2023-07-31T02:41:37;98573.75;;;22.87;100.00
53270;BME280;39159;45.634;9.420;2023-07-31T02:44:03;98575.75;;;22.83;100.00
53270;BME280;39159;45.634;9.420;2023-07-31T02:46:28;98577.34;;;22.84;100.00
53270;BME280;39159;45.634;9.420;2023-07-31T02:48:54;98580.13;;;22.84;100.00
53270;BME280;39159;45.634;9.420;2023-07-31T02:51:19;98582.94;;;22.88;100.00
53270;BME280;39159;45.634;9.420;2023-07-31T02:53:47;98580.50;;;22.90;100.00
53270;BME280;39159;45.634;9.420;2023-07-31T02:56:13;98580.13;;;22.84;100.00
53270;BME280;39159;45.634;9.420;2023-07-31T02:58:38;98577.34;;;22.84;100.00
53270;BME280;39159;45.634;9.420;2023-07-31T03:01:04;98577.75;;;22.83;100.00
53270;BME280;39159;45.634;9.420;2023-07-31T03:03:29;98575.38;;;22.77;100.00
53270;BME280;39159;45.634;9.420;2023-07-31T03:05:54;98579.34;;;22.80;100.00
53270;BME280;39159;45.634;9.420;2023-07-31T03:08:20;98585.31;;;22.82;100.00
53270;BME280;39159;45.634;9.420;2023-07-31T03:10:46;98581.75;;;22.82;100.00
53270;BME280;39159;45.634;9.420;2023-07-31T03:13:11;98577.78;;;22.79;100.00
53270;BME280;39159;45.634;9.420;2023-07-31T03:15:37;98575.75;;;22.83;100.00
53270;BME280;39159;45.634;9.420;2023-07-31T03:18:02;98580.53;;;22.86;100.00
53270;BME280;39159;45.634;9.420;2023-07-31T03:20:27;98577.34;;;22.84;100.00
53270;BME280;39159;45.634;9.420;2023-07-31T03:22:53;98575.75;;;22.87;100.00
53270;BME280;39159;45.634;9.420;2023-07-31T03:25:18;98575.75;;;22.87;100.00
53270;BME280;39159;45.634;9.420;2023-07-31T03:27:44;98570.59;;;22.82;100.00
53270;BME280;39159;45.634;9.420;2023-07-31T03:30:09;98573.38;;;22.85;100.00
53270;BME280;39159;45.634;9.420;2023-07-31T03:32:35;98571.78;;;22.81;100.00
53270;BME280;39159;45.634;9.420;2023-07-31T03:35:00;98573.78;;;22.73;100.00
53270;BME280;39159;45.634;9.420;2023-07-31T03:37:26;98570.59;;;22.67;100.00
53270;BME280;39159;45.634;9.420;2023-07-31T03:39:51;98576.19;;;22.60;100.00
53270;BME280;39159;45.634;9.420;2023-07-31T03:42:17;98573.00;;;22.51;100.00
53270;BME280;39159;45.634;9.420;2023-07-31T03:44:42;98577.38;;;22.41;100.00
53270;BME280;39159;45.634;9.420;2023-07-31T03:47:08;98570.22;;;22.29;100.00
53270;BME280;39159;45.634;9.420;2023-07-31T03:49:33;98576.16;;;22.31;100.00
53270;BME280;39159;45.634;9.420;2023-07-31T03:51:59;98582.91;;;22.27;100.00
53270;BME280;39159;45.634;9.420;2023-07-31T03:54:24;98586.88;;;22.22;100.00
53270;BME280;39159;45.634;9.420;2023-07-31T03:56:49;98580.53;;;22.22;100.00
53270;BME280;39159;45.634;9.420;2023-07-31T03:59:15;98589.25;;;22.17;100.00
53270;BME280;39159;45.634;9.420;2023-07-31T04:01:40;98586.03;;;22.11;100.00
53270;BME280;39159;45.634;9.420;2023-07-31T04:04:06;98581.28;;;22.11;100.00
53270;BME280;39159;45.634;9.420;2023-07-31T04:06:31;98584.06;;;22.04;100.00
53270;BME280;39159;45.634;9.420;2023-07-31T04:08:57;98581.69;;;22.06;100.00
53270;BME280;39159;45.634;9.420;2023-07-31T04:11:22;98586.44;;;22.02;100.00
53270;BME280;39159;45.634;9.420;2023-07-31T04:13:48;98581.69;;;22.06;100.00
53270;BME280;39159;45.634;9.420;2023-07-31T04:16:13;98580.09;;;22.09;100.00
53270;BME280;39159;45.634;9.420;2023-07-31T04:18:39;98574.53;;;22.09;100.00
53270;BME280;39159;45.634;9.420;2023-07-31T04:21:04;98579.28;;;22.12;100.00
53270;BME280;39159;45.634;9.420;2023-07-31T04:23:29;98573.78;;;22.23;100.00
53270;BME280;39159;45.634;9.420;2023-07-31T04:25:55;98580.94;;;22.24;100.00
53270;BME280;39159;45.634;9.420;2023-07-31T04:28:21;98586.09;;;22.22;100.00
53270;BME280;39159;45.634;9.420;2023-07-31T04:30:46;98579.34;;;22.23;100.00
53270;BME280;39159;45.634;9.420;2023-07-31T04:33:12;98584.47;;;22.17;100.00
53270;BME280;39159;45.634;9.420;2023-07-31T04:35:37;98578.13;;;22.20;100.00
53270;BME280;39159;45.634;9.420;2023-07-31T04:38:03;98586.09;;;22.22;100.00
53270;BME280;39159;45.634;9.420;2023-07-31T04:40:28;98578.16;;;22.24;100.00
53270;BME280;39159;45.634;9.420;2023-07-31T04:42:54;98584.09;;;22.29;100.00
53270;BME280;39159;45.634;9.420;2023-07-31T04:45:19;98596.81;;;22.27;100.00
53270;BME280;39159;45.634;9.420;2023-07-31T04:47:44;98588.50;;;22.23;100.00
53270;BME280;39159;45.634;9.420;2023-07-31T04:50:10;98599.22;;;22.28;100.00
53270;BME280;39159;45.634;9.420;2023-07-31T04:52:35;98608.34;;;22.36;100.00
53270;BME280;39159;45.634;9.420;2023-07-31T04:55:01;98604.38;;;22.33;100.00
53270;BME280;39159;45.634;9.420;2023-07-31T04:57:26;98606.78;;;22.35;100.00
53270;BME280;39159;45.634;9.420;2023-07-31T04:59:52;98619.88;;;22.45;100.00
53270;BME280;39159;45.634;9.420;2023-07-31T05:02:17;98623.84;;;22.51;100.00
53270;BME280;39159;45.634;9.420;2023-07-31T05:04:43;98617.09;;;22.63;100.00
53270;BME280;39159;45.634;9.420;2023-07-31T05:07:08;98621.47;;;22.71;100.00
53270;BME280;39159;45.634;9.420;2023-07-31T05:09:34;98624.25;;;22.71;100.00
53270;BME280;39159;45.634;9.420;2023-07-31T05:11:59;98629.41;;;22.76;100.00
53270;BME280;39159;45.634;9.420;2023-07-31T05:14:25;98631.81;;;22.74;100.00
53270;BME280;39159;45.634;9.420;2023-07-31T05:16:51;98635.78;;;22.77;100.00
53270;BME280;39159;45.634;9.420;2023-07-31T05:19:17;98646.50;;;22.82;100.00
53270;BME280;39159;45.634;9.420;2023-07-31T05:21:42;98651.28;;;22.89;100.00
53270;BME280;39159;45.634;9.420;2023-07-31T05:24:07;98649.28;;;22.82;100.00
53270;BME280;39159;45.634;9.420;2023-07-31T05:26:33;98652.88;;;22.93;100.00
53270;BME280;39159;45.634;9.420;2023-07-31T05:28:58;98646.50;;;22.96;100.00
53270;BME280;39159;45.634;9.420;2023-07-31T05:31:24;98645.34;;;23.01;100.00
53270;BME280;39159;45.634;9.420;2023-07-31T05:33:50;98650.91;;;23.05;100.00
53270;BME280;39159;45.634;9.420;2023-07-31T05:36:16;98658.84;;;23.10;100.00
53270;BME280;39159;45.634;9.420;2023-07-31T05:38:41;98655.28;;;23.06;100.00
53270;BME280;39159;45.634;9.420;2023-07-31T05:41:09;98650.09;;;23.11;100.00
53270;BME280;39159;45.634;9.420;2023-07-31T05:43:34;98654.88;;;23.11;100.00
53270;BME280;39159;45.634;9.420;2023-07-31T05:46:00;98652.88;;;23.18;100.00
53270;BME280;39159;45.634;9.420;2023-07-31T05:48:26;98656.06;;;23.28;100.00
53270;BME280;39159;45.634;9.420;2023-07-31T05:50:52;98662.00;;;23.26;100.00
53270;BME280;39159;45.634;9.420;2023-07-31T05:53:17;98655.63;;;23.29;100.00
53270;BME280;39159;45.634;9.420;2023-07-31T05:55:43;98664.78;;;23.37;100.00
53270;BME280;39159;45.634;9.420;2023-07-31T05:58:08;98658.41;;;23.40;100.00
53270;BME280;39159;45.634;9.420;2023-07-31T06:00:33;98657.16;;;23.52;100.00
53270;BME280;39159;45.634;9.420;2023-07-31T06:02:59;98660.75;;;23.59;100.00
53270;BME280;39159;45.634;9.420;2023-07-31T06:05:24;98657.94;;;23.67;100.00
53270;BME280;39159;45.634;9.420;2023-07-31T06:07:51;98669.47;;;23.72;100.00
53270;BME280;39159;45.634;9.420;2023-07-31T06:10:16;98662.69;;;23.73;100.00
53270;BME280;39159;45.634;9.420;2023-07-31T06:12:42;98669.06;;;23.67;100.00
53270;BME280;39159;45.634;9.420;2023-07-31T06:15:07;98669.50;;;23.58;100.00
53270;BME280;39159;45.634;9.420;2023-07-31T06:17:33;98669.88;;;23.64;100.00
53270;BME280;39159;45.634;9.420;2023-07-31T06:19:58;98667.09;;;23.64;100.00
53270;BME280;39159;45.634;9.420;2023-07-31T06:22:24;98678.63;;;23.69;100.00
53270;BME280;39159;45.634;9.420;2023-07-31T06:24:49;98672.63;;;23.74;100.00
53270;BME280;39159;45.634;9.420;2023-07-31T06:27:15;98682.59;;;23.72;100.00
53270;BME280;39159;45.634;9.420;2023-07-31T06:29:40;98679.41;;;23.70;100.00
53270;BME280;39159;45.634;9.420;2023-07-31T06:32:06;98680.19;;;23.74;100.00
53270;BME280;39159;45.634;9.420;2023-07-31T06:34:32;98684.53;;;23.89;100.00
53270;BME280;39159;45.634;9.420;2023-07-31T06:36:57;98683.31;;;23.94;100.00
53270;BME280;39159;45.634;9.420;2023-07-31T06:39:23;98679.34;;;23.95;100.00
53270;BME280;39159;45.634;9.420;2023-07-31T06:41:48;98683.78;;;23.82;100.00
53270;BME280;39159;45.634;9.420;2023-07-31T06:44:14;98682.59;;;23.79;100.00
53270;BME280;39159;45.634;9.420;2023-07-31T06:46:39;98680.19;;;23.85;100.00
53270;BME280;39159;45.634;9.420;2023-07-31T06:49:05;98681.78;;;23.86;100.00
53270;BME280;39159;45.634;9.420;2023-07-31T06:51:30;98687.72;;;23.88;100.00
53270;BME280;39159;45.634;9.420;2023-07-31T06:53:57;98692.88;;;24.04;100.00
53270;BME280;39159;45.634;9.420;2023-07-31T06:56:23;98688.06;;;24.04;100.00
53270;BME280;39159;45.634;9.420;2023-07-31T06:58:48;98688.84;;;24.08;100.00
53270;BME280;39159;45.634;9.420;2023-07-31T07:01:14;98688.91;;;23.97;100.00
53270;BME280;39159;45.634;9.420;2023-07-31T07:03:39;98693.25;;;24.02;100.00
53270;BME280;39159;45.634;9.420;2023-07-31T07:06:05;98689.69;;;23.94;100.00
53270;BME280;39159;45.634;9.420;2023-07-31T07:08:31;98689.63;;;24.12;100.00
53270;BME280;39159;45.634;9.420;2023-07-31T07:10:56;98693.50;;;24.33;100.00
53270;BME280;39159;45.634;9.420;2023-07-31T07:13:22;98686.19;;;24.60;100.00
53270;BME280;39159;45.634;9.420;2023-07-31T07:15:48;98683.41;;;24.60;98.13
53270;BME280;39159;45.634;9.420;2023-07-31T07:18:14;98677.59;;;24.93;97.18
53270;BME280;39159;45.634;9.420;2023-07-31T07:20:39;98675.19;;;24.95;95.98
53270;BME280;39159;45.634;9.420;2023-07-31T07:23:05;98678.63;;;25.10;96.54
53270;BME280;39159;45.634;9.420;2023-07-31T07:25:31;98688.53;;;25.14;95.07
53270;BME280;39159;45.634;9.420;2023-07-31T07:27:56;98679.34;;;25.21;96.04
53270;BME280;39159;45.634;9.420;2023-07-31T07:30:22;98683.34;;;25.16;96.34
53270;BME280;39159;45.634;9.420;2023-07-31T07:32:48;98694.28;;;25.00;95.74
53270;BME280;39159;45.634;9.420;2023-07-31T07:35:14;98703.91;;;24.92;96.72
53270;BME280;39159;45.634;9.420;2023-07-31T07:37:39;98707.13;;;24.90;97.68
53270;BME280;39159;45.634;9.420;2023-07-31T07:40:05;98694.75;;;24.88;97.84
53270;BME280;39159;45.634;9.420;2023-07-31T07:42:31;98690.69;;;24.99;95.69
53270;BME280;39159;45.634;9.420;2023-07-31T07:44:56;98693.06;;;25.01;93.74
53270;BME280;39159;45.634;9.420;2023-07-31T07:47:22;98684.81;;;24.87;92.13
53270;BME280;39159;45.634;9.420;2023-07-31T07:49:47;98695.97;;;24.87;93.06
53270;BME280;39159;45.634;9.420;2023-07-31T07:52:13;98690.94;;;25.16;90.00
53270;BME280;39159;45.634;9.420;2023-07-31T07:54:38;98692.84;;;25.30;88.20
53270;BME280;39159;45.634;9.420;2023-07-31T07:57:04;98689.34;;;25.60;84.03
53270;BME280;39159;45.634;9.420;2023-07-31T07:59:29;98687.63;;;25.70;84.20
53270;BME280;39159;45.634;9.420;2023-07-31T08:01:55;98696.44;;;26.06;82.97
53270;BME280;39159;45.634;9.420;2023-07-31T08:04:20;98692.88;;;26.33;78.66
53270;BME280;39159;45.634;9.420;2023-07-31T08:06:45;98692.03;;;26.36;78.83
53270;BME280;39159;45.634;9.420;2023-07-31T08:09:11;98690.22;;;26.53;76.95
53270;BME280;39159;45.634;9.420;2023-07-31T08:11:36;98701.25;;;26.91;76.24
53270;BME280;39159;45.634;9.420;2023-07-31T08:14:02;98695.13;;;27.23;74.44
53270;BME280;39159;45.634;9.420;2023-07-31T08:16:27;98703.38;;;27.54;67.96
53270;BME280;39159;45.634;9.420;2023-07-31T08:18:53;98699.56;;;27.87;65.87
53270;BME280;39159;45.634;9.420;2023-07-31T08:21:18;98698.44;;;28.21;66.22
53270;BME280;39159;45.634;9.420;2023-07-31T08:23:44;98693.31;;;28.56;65.08
53270;BME280;39159;45.634;9.420;2023-07-31T08:26:19;98693.41;;;28.85;63.62
53270;BME280;39159;45.634;9.420;2023-07-31T08:28:46;98691.75;;;28.88;60.93
53270;BME280;39159;45.634;9.420;2023-07-31T08:31:11;98693.59;;;28.78;61.67
53270;BME280;39159;45.634;9.420;2023-07-31T08:33:37;98679.63;;;28.58;61.39
53270;BME280;39159;45.634;9.420;2023-07-31T08:36:03;98679.13;;;28.96;61.29
53270;BME280;39159;45.634;9.420;2023-07-31T08:38:29;98672.38;;;28.93;60.55
53270;BME280;39159;45.634;9.420;2023-07-31T08:40:57;98682.56;;;29.04;61.66
53270;BME280;39159;45.634;9.420;2023-07-31T08:43:25;98681.19;;;29.41;62.38
53270;BME280;39159;45.634;9.420;2023-07-31T08:45:51;98679.03;;;29.78;62.78
53270;BME280;39159;45.634;9.420;2023-07-31T08:48:17;98667.56;;;29.85;58.09
53270;BME280;39159;45.634;9.420;2023-07-31T08:50:44;98674.09;;;29.37;58.77
53270;BME280;39159;45.634;9.420;2023-07-31T08:53:09;98671.56;;;29.26;59.89
53270;BME280;39159;45.634;9.420;2023-07-31T08:55:35;98670.41;;;29.40;60.40
53270;BME280;39159;45.634;9.420;2023-07-31T08:58:02;98673.78;;;29.18;60.34
53270;BME280;39159;45.634;9.420;2023-07-31T09:00:29;98675.69;;;29.05;60.90
53270;BME280;39159;45.634;9.420;2023-07-31T09:03:03;98673.59;;;29.54;62.25
53270;BME280;39159;45.634;9.420;2023-07-31T09:05:31;98675.34;;;29.65;58.94
53270;BME280;39159;45.634;9.420;2023-07-31T09:07:57;98686.59;;;29.94;58.10
53270;BME280;39159;45.634;9.420;2023-07-31T09:10:23;98677.13;;;29.59;57.89
53270;BME280;39159;45.634;9.420;2023-07-31T09:12:51;98677.56;;;29.11;59.71
53270;BME280;39159;45.634;9.420;2023-07-31T09:15:17;98679.31;;;29.22;60.62
53270;BME280;39159;45.634;9.420;2023-07-31T09:17:43;98675.53;;;29.28;59.50
53270;BME280;39159;45.634;9.420;2023-07-31T09:20:16;98676.72;;;29.44;58.04
53270;BME280;39159;45.634;9.420;2023-07-31T09:22:43;98676.91;;;29.37;58.70
53270;BME280;39159;45.634;9.420;2023-07-31T09:27:53;98684.81;;;29.42;59.34
53270;BME280;39159;45.634;9.420;2023-07-31T09:30:20;98683.13;;;30.03;59.19
53270;BME280;39159;45.634;9.420;2023-07-31T09:32:47;98688.91;;;30.12;55.69
53270;BME280;39159;45.634;9.420;2023-07-31T09:37:57;98685.31;;;30.24;54.50
53270;BME280;39159;45.634;9.420;2023-07-31T09:40:33;98678.16;;;30.36;55.03
53270;BME280;39159;45.634;9.420;2023-07-31T09:43:10;98676.38;;;30.42;55.07
53270;BME280;39159;45.634;9.420;2023-07-31T09:45:38;98682.00;;;30.55;58.42
53270;BME280;39159;45.634;9.420;2023-07-31T09:48:07;98673.53;;;30.29;55.02
53270;BME280;39159;45.634;9.420;2023-07-31T09:50:36;98674.50;;;30.23;55.43
53270;BME280;39159;45.634;9.420;2023-07-31T09:53:03;98681.22;;;30.42;55.06
53270;BME280;39159;45.634;9.420;2023-07-31T09:55:29;98675.28;;;30.23;55.25
53270;BME280;39159;45.634;9.420;2023-07-31T09:57:57;98665.09;;;30.42;55.79
53270;BME280;39159;45.634;9.420;2023-07-31T10:00:23;98666.56;;;30.85;55.22
53270;BME280;39159;45.634;9.420;2023-07-31T10:02:52;98668.34;;;31.05;54.34
53270;BME280;39159;45.634;9.420;2023-07-31T10:05:19;98666.78;;;31.38;51.72
53270;BME280;39159;45.634;9.420;2023-07-31T10:07:53;98662.91;;;31.80;53.40
53270;BME280;39159;45.634;9.420;2023-07-31T10:10:21;98663.03;;;31.76;52.54
53270;BME280;39159;45.634;9.420;2023-07-31T10:12:50;98669.25;;;31.93;51.22
53270;BME280;39159;45.634;9.420;2023-07-31T10:15:17;98671.75;;;31.69;50.03
53270;BME280;39159;45.634;9.420;2023-07-31T10:17:43;98668.31;;;31.17;52.52
53270;BME280;39159;45.634;9.420;2023-07-31T10:20:09;98663.38;;;30.70;53.47
53270;BME280;39159;45.634;9.420;2023-07-31T10:22:36;98665.53;;;30.28;54.85
53270;BME280;39159;45.634;9.420;2023-07-31T10:25:02;98653.72;;;30.71;54.37
53270;BME280;39159;45.634;9.420;2023-07-31T10:27:28;98653.13;;;31.02;54.05
53270;BME280;39159;45.634;9.420;2023-07-31T10:29:55;98657.88;;;30.92;51.80
53270;BME280;39159;45.634;9.420;2023-07-31T10:32:22;98655.41;;;30.43;53.89
53270;BME280;39159;45.634;9.420;2023-07-31T10:34:49;98648.84;;;30.72;52.91
53270;BME280;39159;45.634;9.420;2023-07-31T10:37:27;98643.47;;;30.77;52.82
53270;BME280;39159;45.634;9.420;2023-07-31T10:40:13;98644.75;;;31.11;52.96
53270;BME280;39159;45.634;9.420;2023-07-31T10:42:56;98639.66;;;31.54;50.41
53270;BME280;39159;45.634;9.420;2023-07-31T10:45:34;98644.53;;;31.53;50.54
53270;BME280;39159;45.634;9.420;2023-07-31T10:48:03;98648.25;;;31.72;49.94
53270;BME280;39159;45.634;9.420;2023-07-31T10:50:31;98651.06;;;31.50;49.48
53270;BME280;39159;45.634;9.420;2023-07-31T10:52:59;98647.47;;;31.15;49.55
53270;BME280;39159;45.634;9.420;2023-07-31T10:58:06;98635.41;;;31.49;50.19
53270;BME280;39159;45.634;9.420;2023-07-31T11:00:32;98631.41;;;32.04;49.49
53270;BME280;39159;45.634;9.420;2023-07-31T11:03:07;98627.56;;;31.66;50.55
53270;BME280;39159;45.634;9.420;2023-07-31T11:05:54;98644.44;;;31.09;52.27
53270;BME280;39159;45.634;9.420;2023-07-31T11:08:27;98632.56;;;31.14;54.42
53270;BME280;39159;45.634;9.420;2023-07-31T11:13:28;98645.53;;;31.12;52.44
53270;BME280;39159;45.634;9.420;2023-07-31T11:15:53;98640.31;;;30.88;52.56
53270;BME280;39159;45.634;9.420;2023-07-31T11:18:19;98631.31;;;30.42;56.08
53270;BME280;39159;45.634;9.420;2023-07-31T11:20:45;98628.25;;;30.88;56.37
53270;BME280;39159;45.634;9.420;2023-07-31T11:23:11;98631.16;;;31.32;53.71
53270;BME280;39159;45.634;9.420;2023-07-31T11:25:39;98620.31;;;31.08;53.85
53270;BME280;39159;45.634;9.420;2023-07-31T11:28:12;98609.69;;;30.52;56.33
53270;BME280;39159;45.634;9.420;2023-07-31T11:30:38;98615.72;;;29.99;57.63
53270;BME280;39159;45.634;9.420;2023-07-31T11:33:06;98610.00;;;30.41;55.68
53270;BME280;39159;45.634;9.420;2023-07-31T11:35:40;98605.59;;;30.91;55.07
53270;BME280;39159;45.634;9.420;2023-07-31T11:38:07;98607.53;;;31.51;52.05
53270;BME280;39159;45.634;9.420;2023-07-31T11:40:43;98602.09;;;31.88;52.46
53270;BME280;39159;45.634;9.420;2023-07-31T11:43:09;98602.59;;;31.87;53.12
53270;BME280;39159;45.634;9.420;2023-07-31T11:45:36;98598.34;;;31.82;54.22
53270;BME280;39159;45.634;9.420;2023-07-31T11:48:02;98591.47;;;32.14;52.95
53270;BME280;39159;45.634;9.420;2023-07-31T11:50:28;98597.56;;;32.44;51.15
53270;BME280;39159;45.634;9.420;2023-07-31T11:52:57;98594.19;;;32.27;50.48
53270;BME280;39159;45.634;9.420;2023-07-31T11:55:25;98593.22;;;32.21;49.20
53270;BME280;39159;45.634;9.420;2023-07-31T11:57:51;98589.06;;;32.04;49.92
53270;BME280;39159;45.634;9.420;2023-07-31T12:00:18;98592.41;;;31.89;49.62
53270;BME280;39159;45.634;9.420;2023-07-31T12:02:44;98584.28;;;31.91;51.70
53270;BME280;39159;45.634;9.420;2023-07-31T12:05:13;98580.41;;;32.29;49.14
53270;BME280;39159;45.634;9.420;2023-07-31T12:07:52;98573.75;;;31.92;50.66
53270;BME280;39159;45.634;9.420;2023-07-31T12:10:28;98565.09;;;31.33;53.25
53270;BME280;39159;45.634;9.420;2023-07-31T12:13:05;98563.00;;;30.89;52.85
53270;BME280;39159;45.634;9.420;2023-07-31T12:15:35;98556.06;;;30.55;55.11
53270;BME280;39159;45.634;9.420;2023-07-31T12:18:04;98554.19;;;30.74;54.48
53270;BME280;39159;45.634;9.420;2023-07-31T12:20:30;98543.75;;;31.10;52.85
53270;BME280;39159;45.634;9.420;2023-07-31T12:22:56;98551.09;;;31.73;52.15
53270;BME280;39159;45.634;9.420;2023-07-31T12:25:22;98546.97;;;31.96;50.25
53270;BME280;39159;45.634;9.420;2023-07-31T12:27:50;98548.72;;;31.28;52.17
53270;BME280;39159;45.634;9.420;2023-07-31T12:30:48;98542.13;;;31.66;52.79
53270;BME280;39159;45.634;9.420;2023-07-31T12:33:14;98540.97;;;31.85;53.61
53270;BME280;39159;45.634;9.420;2023-07-31T12:35:47;98535.78;;;32.15;53.16
53270;BME280;39159;45.634;9.420;2023-07-31T12:38:13;98535.94;;;32.11;50.22
53270;BME280;39159;45.634;9.420;2023-07-31T12:40:39;98523.63;;;32.36;49.84
53270;BME280;39159;45.634;9.420;2023-07-31T12:43:06;98516.19;;;32.11;50.38
53270;BME280;39159;45.634;9.420;2023-07-31T12:45:32;98516.69;;;31.56;53.10
53270;BME280;39159;45.634;9.420;2023-07-31T12:48:01;98505.47;;;31.00;54.68
53270;BME280;39159;45.634;9.420;2023-07-31T12:50:27;98505.13;;;31.64;53.43
53270;BME280;39159;45.634;9.420;2023-07-31T12:52:56;98500.38;;;32.23;51.19
53270;BME280;39159;45.634;9.420;2023-07-31T12:55:22;98503.16;;;32.14;50.21
53270;BME280;39159;45.634;9.420;2023-07-31T12:57:49;98496.38;;;32.61;49.05
53270;BME280;39159;45.634;9.420;2023-07-31T13:00:15;98495.84;;;31.94;50.60
53270;BME280;39159;45.634;9.420;2023-07-31T13:02:40;98487.19;;;32.20;50.40
53270;BME280;39159;45.634;9.420;2023-07-31T13:05:06;98489.47;;;32.03;51.08
53270;BME280;39159;45.634;9.420;2023-07-31T13:07:31;98488.72;;;32.03;50.37
53270;BME280;39159;45.634;9.420;2023-07-31T13:09:57;98481.28;;;31.55;51.41